Time;durP1;ratioP1;P1;durP2;ratioP2;P2;SDS_P1;SDS_P2;PMS_P1;PMS_P2;Temp;Humidity;BMP_temperature;BMP_pressure;BME280_temperature;BME280_humidity;BME280_pressure;Samples;Min_cycle;Max_cycle;Signal;HPM_P1;HPM_P2
2022/11/01 00:01:54;;;;;;;6.23;5.73;;;;;;;;;;5048796;28;20540;-67
2022/11/01 00:04:20;;;;;;;6.43;5.27;;;;;;;;;;5067993;28;20515;-68
2022/11/01 00:06:46;;;;;;;6.70;6.20;;;;;;;;;;5063944;28;20932;-68
2022/11/01 00:09:12;;;;;;;8.70;6.70;;;;;;;;;;5068261;28;20492;-69
2022/11/01 00:11:38;;;;;;;9.60;6.10;;;;;;;;;;5067320;28;20429;-68
2022/11/01 00:14:04;;;;;;;10.20;6.70;;;;;;;;;;5067419;28;20438;-68
2022/11/01 00:16:30;;;;;;;11.87;6.03;;;;;;;;;;5068241;28;20475;-68
2022/11/01 00:18:56;;;;;;;10.70;6.33;;;;;;;;;;5068441;28;20436;-68
2022/11/01 00:21:23;;;;;;;8.30;6.27;;;;;;;;;;5064646;28;20821;-68
2022/11/01 00:23:49;;;;;;;15.67;6.20;;;;;;;;;;5065021;28;20430;-68
2022/11/01 00:26:17;;;;;;;11.70;6.43;;;;;;;;;;5065197;28;20426;-68
2022/11/01 00:28:43;;;;;;;11.50;5.97;;;;;;;;;;5067193;28;20489;-68
2022/11/01 00:31:09;;;;;;;15.63;7.43;;;;;;;;;;5066638;28;20433;-68
2022/11/01 00:33:37;;;;;;;8.77;6.87;;;;;;;;;;5066737;28;20441;-68
2022/11/01 00:36:03;;;;;;;6.83;6.33;;;;;;;;;;5064968;28;20801;-68
2022/11/01 00:38:29;;;;;;;9.27;7.43;;;;;;;;;;5067288;28;20996;-69
2022/11/01 00:40:55;;;;;;;10.07;6.10;;;;;;;;;;5066747;28;20445;-68
2022/11/01 00:43:21;;;;;;;6.73;6.00;;;;;;;;;;5067135;28;20458;-69
2022/11/01 00:45:47;;;;;;;11.13;6.43;;;;;;;;;;5065431;28;20469;-68
2022/11/01 00:48:13;;;;;;;6.03;5.63;;;;;;;;;;5067763;28;20527;-68
2022/11/01 00:50:40;;;;;;;11.40;6.93;;;;;;;;;;5067936;28;20422;-68
2022/11/01 00:53:06;;;;;;;8.23;5.90;;;;;;;;;;5068495;28;20489;-68
2022/11/01 00:55:33;;;;;;;9.43;6.27;;;;;;;;;;5064451;28;20925;-68
2022/11/01 00:57:59;;;;;;;6.13;5.63;;;;;;;;;;5066968;28;20954;-68
2022/11/01 01:00:25;;;;;;;9.30;6.10;;;;;;;;;;5065074;28;20429;-68
2022/11/01 01:02:51;;;;;;;10.37;5.70;;;;;;;;;;5063058;28;20430;-68
2022/11/01 01:05:17;;;;;;;8.30;6.23;;;;;;;;;;5047345;28;20430;-68
2022/11/01 01:07:43;;;;;;;8.43;5.27;;;;;;;;;;5066111;28;20499;-68
2022/11/01 01:10:09;;;;;;;16.00;6.87;;;;;;;;;;5066388;28;21122;-68
2022/11/01 01:12:35;;;;;;;15.13;6.50;;;;;;;;;;5065263;28;20850;-68
2022/11/01 01:15:01;;;;;;;7.40;5.57;;;;;;;;;;5049057;28;20893;-69
2022/11/01 01:17:27;;;;;;;9.70;5.70;;;;;;;;;;5064564;28;20444;-68
2022/11/01 01:19:53;;;;;;;14.47;6.40;;;;;;;;;;5065457;28;20794;-68
2022/11/01 01:22:19;;;;;;;6.10;5.53;;;;;;;;;;5064791;28;20460;-68
2022/11/01 01:24:46;;;;;;;6.03;5.43;;;;;;;;;;5066806;28;20480;-68
2022/11/01 01:27:13;;;;;;;9.10;5.60;;;;;;;;;;5061084;28;20532;-68
2022/11/01 01:29:43;;;;;;;10.77;5.57;;;;;;;;;;5065232;28;20525;-68
2022/11/01 01:32:13;;;;;;;5.17;4.77;;;;;;;;;;5065171;28;20428;-68
2022/11/01 01:34:39;;;;;;;11.00;6.00;;;;;;;;;;5069049;28;20933;-68
2022/11/01 01:37:05;;;;;;;6.17;5.77;;;;;;;;;;5062880;28;20933;-68
2022/11/01 01:39:31;;;;;;;6.33;5.07;;;;;;;;;;5066402;28;20476;-68
2022/11/01 01:41:57;;;;;;;11.73;4.93;;;;;;;;;;5069874;28;20425;-68
2022/11/01 01:44:42;;;;;;;19.47;5.50;;;;;;;;;;5070747;28;20441;-68
2022/11/01 01:47:11;;;;;;;7.20;5.00;;;;;;;;;;5070652;28;20421;-68
2022/11/01 01:49:38;;;;;;;9.47;6.03;;;;;;;;;;5072847;28;20480;-68
2022/11/01 01:52:04;;;;;;;4.97;4.53;;;;;;;;;;5069139;28;20504;-69
2022/11/01 01:54:31;;;;;;;9.37;4.60;;;;;;;;;;5069847;28;20755;-68
2022/11/01 01:56:57;;;;;;;5.00;4.60;;;;;;;;;;5069083;28;20662;-68
2022/11/01 01:59:23;;;;;;;7.30;4.07;;;;;;;;;;5069019;28;20960;-68
2022/11/01 02:01:49;;;;;;;9.07;5.00;;;;;;;;;;5068447;28;20441;-68
2022/11/01 02:04:18;;;;;;;4.47;4.23;;;;;;;;;;5069807;28;20480;-68
2022/11/01 02:06:44;;;;;;;15.33;4.50;;;;;;;;;;5069623;28;20440;-68
2022/11/01 02:09:11;;;;;;;5.40;2.93;;;;;;;;;;5082125;28;20569;-68
2022/11/01 02:11:37;;;;;;;6.43;3.60;;;;;;;;;;5067850;28;20422;-68
2022/11/01 02:14:03;;;;;;;9.03;3.83;;;;;;;;;;5070254;28;20514;-68
2022/11/01 02:16:45;;;;;;;6.73;3.27;;;;;;;;;;5069166;28;20461;-68
2022/11/01 02:19:26;;;;;;;8.70;4.13;;;;;;;;;;5069138;28;20456;-68
2022/11/01 02:22:01;;;;;;;7.90;3.50;;;;;;;;;;5068022;28;20802;-68
2022/11/01 02:24:30;;;;;;;5.23;3.17;;;;;;;;;;5070508;28;20449;-68
2022/11/01 02:27:20;;;;;;;3.67;3.43;;;;;;;;;;5068797;28;20448;-68
2022/11/01 02:30:07;;;;;;;6.00;3.73;;;;;;;;;;5071322;28;20481;-68
2022/11/01 02:32:39;;;;;;;3.93;3.60;;;;;;;;;;5071180;28;20448;-68
2022/11/01 02:35:18;;;;;;;5.03;3.40;;;;;;;;;;5070756;28;20437;-68
2022/11/01 02:37:57;;;;;;;12.10;4.57;;;;;;;;;;5071652;28;20517;-68
2022/11/01 02:40:42;;;;;;;9.63;3.10;;;;;;;;;;5068585;28;20494;-68
2022/11/01 02:43:19;;;;;;;4.07;2.50;;;;;;;;;;5051913;28;20512;-68
2022/11/01 02:45:49;;;;;;;15.10;3.80;;;;;;;;;;5068470;28;20944;-68
2022/11/01 02:48:16;;;;;;;4.10;3.63;;;;;;;;;;5070758;28;20476;-67
2022/11/01 02:50:44;;;;;;;2.90;2.70;;;;;;;;;;5071317;28;20538;-68
2022/11/01 02:53:10;;;;;;;4.93;2.60;;;;;;;;;;5069816;28;20667;-68
2022/11/01 02:55:36;;;;;;;7.70;2.70;;;;;;;;;;5069979;28;20433;-68
2022/11/01 02:58:22;;;;;;;4.10;2.83;;;;;;;;;;5071111;28;20990;-68
2022/11/01 03:00:48;;;;;;;2.63;2.40;;;;;;;;;;5070455;28;20440;-68
2022/11/01 03:03:20;;;;;;;2.50;2.30;;;;;;;;;;5070548;28;20460;-68
2022/11/01 03:06:09;;;;;;;4.10;2.60;;;;;;;;;;5052023;28;20799;-68
2022/11/01 03:08:35;;;;;;;2.87;2.67;;;;;;;;;;5062940;28;20538;-68
2022/11/01 03:11:04;;;;;;;3.73;3.07;;;;;;;;;;5069849;28;20437;-68
2022/11/01 03:13:46;;;;;;;11.20;2.63;;;;;;;;;;5069658;28;20495;-68
2022/11/01 03:16:17;;;;;;;2.37;2.27;;;;;;;;;;5051752;28;20529;-68
2022/11/01 03:18:58;;;;;;;3.80;2.27;;;;;;;;;;5071126;28;20976;-68
2022/11/01 03:21:26;;;;;;;2.33;2.20;;;;;;;;;;5070277;28;20444;-68
2022/11/01 03:24:00;;;;;;;6.03;1.60;;;;;;;;;;5071177;28;20426;-68
2022/11/01 03:26:29;;;;;;;1.77;1.67;;;;;;;;;;5070255;28;20468;-68
2022/11/01 03:28:59;;;;;;;3.73;1.90;;;;;;;;;;5050970;28;20901;-68
2022/11/01 03:31:28;;;;;;;4.87;1.43;;;;;;;;;;5051430;28;20767;-68
2022/11/01 03:33:55;;;;;;;6.73;1.53;;;;;;;;;;5071106;28;20767;-68
2022/11/01 03:36:23;;;;;;;12.07;1.90;;;;;;;;;;5069500;28;20425;-68
2022/11/01 03:38:53;;;;;;;8.03;1.73;;;;;;;;;;5069302;28;20934;-68
2022/11/01 03:41:21;;;;;;;2.13;1.40;;;;;;;;;;5069884;28;20512;-68
2022/11/01 03:43:47;;;;;;;2.20;2.10;;;;;;;;;;5070732;28;20433;-68
2022/11/01 03:46:13;;;;;;;1.73;1.63;;;;;;;;;;5069811;28;21023;-68
2022/11/01 03:48:40;;;;;;;2.97;1.70;;;;;;;;;;5052778;28;20985;-68
2022/11/01 03:51:06;;;;;;;1.50;1.40;;;;;;;;;;5069736;28;20441;-68
2022/11/01 03:53:32;;;;;;;3.67;1.20;;;;;;;;;;5069950;28;20508;-68
2022/11/01 03:55:58;;;;;;;2.93;1.53;;;;;;;;;;5069042;28;20452;-68
2022/11/01 03:58:40;;;;;;;3.17;1.57;;;;;;;;;;5068827;28;20863;-69
2022/11/01 04:01:06;;;;;;;7.00;1.57;;;;;;;;;;5069946;28;20952;-68
2022/11/01 04:03:32;;;;;;;3.70;1.33;;;;;;;;;;5069449;28;20469;-68
2022/11/01 04:05:58;;;;;;;1.90;1.40;;;;;;;;;;5067432;28;20827;-68
2022/11/01 04:08:24;;;;;;;2.63;2.30;;;;;;;;;;5069942;28;20485;-70
2022/11/01 04:10:50;;;;;;;1.70;1.60;;;;;;;;;;5069910;28;20755;-68
2022/11/01 04:13:15;;;;;;;8.33;1.57;;;;;;;;;;5070241;28;20441;-68
2022/11/01 04:21:16;;;;;;;3.03;1.80;;;;;;;;;;5067634;28;20471;-68
2022/11/01 04:23:42;;;;;;;5.43;1.93;;;;;;;;;;5066442;28;20434;-68
2022/11/01 04:26:10;;;;;;;1.30;1.30;;;;;;;;;;5070193;28;20504;-68
2022/11/01 04:28:36;;;;;;;3.53;1.40;;;;;;;;;;5069315;28;20481;-68
2022/11/01 04:31:02;;;;;;;1.00;1.00;;;;;;;;;;5068641;28;20424;-69
2022/11/01 04:33:28;;;;;;;3.83;2.10;;;;;;;;;;5067227;28;20425;-69
2022/11/01 04:35:54;;;;;;;1.87;1.30;;;;;;;;;;5067686;28;20433;-68
2022/11/01 04:38:20;;;;;;;9.50;1.20;;;;;;;;;;5068934;28;20433;-68
2022/11/01 04:40:46;;;;;;;2.50;1.77;;;;;;;;;;5068390;28;20441;-68
2022/11/01 04:43:12;;;;;;;7.23;1.27;;;;;;;;;;5066949;28;20425;-68
2022/11/01 04:45:38;;;;;;;2.20;1.60;;;;;;;;;;5067537;28;20433;-68
2022/11/01 04:48:06;;;;;;;1.97;1.20;;;;;;;;;;5069697;28;20460;-68
2022/11/01 04:50:33;;;;;;;1.07;1.07;;;;;;;;;;5067816;28;20883;-68
2022/11/01 04:52:59;;;;;;;1.67;1.03;;;;;;;;;;5067903;28;20417;-68
2022/11/01 04:55:26;;;;;;;1.43;1.33;;;;;;;;;;5067140;28;20428;-68
2022/11/01 04:57:52;;;;;;;1.40;1.20;;;;;;;;;;5065877;28;20429;-68
2022/11/01 05:00:18;;;;;;;1.07;1.00;;;;;;;;;;5067106;28;20430;-68
2022/11/01 05:02:44;;;;;;;1.20;1.20;;;;;;;;;;5066791;28;20456;-68
2022/11/01 05:05:11;;;;;;;1.40;1.30;;;;;;;;;;5069637;28;20425;-69
2022/11/01 05:07:37;;;;;;;1.77;1.20;;;;;;;;;;5066139;28;20964;-69
2022/11/01 05:10:03;;;;;;;0.80;0.80;;;;;;;;;;5069053;28;20441;-68
2022/11/01 05:12:29;;;;;;;1.47;1.37;;;;;;;;;;5068751;28;20420;-69
2022/11/01 05:14:55;;;;;;;6.07;1.20;;;;;;;;;;5069609;28;20421;-69
2022/11/01 05:17:21;;;;;;;0.90;0.90;;;;;;;;;;5073607;28;20981;-68
2022/11/01 05:19:48;;;;;;;1.00;0.90;;;;;;;;;;5071824;28;20967;-69
2022/11/01 05:22:14;;;;;;;1.20;1.17;;;;;;;;;;5070252;28;20897;-70
2022/11/01 05:24:40;;;;;;;2.83;1.00;;;;;;;;;;5072646;28;20440;-69
2022/11/01 05:27:06;;;;;;;1.27;1.27;;;;;;;;;;5072328;28;20421;-68
2022/11/01 05:29:32;;;;;;;3.30;1.00;;;;;;;;;;5072440;28;20489;-70
2022/11/01 05:31:58;;;;;;;0.70;0.70;;;;;;;;;;5072634;28;20806;-68
2022/11/01 05:34:24;;;;;;;0.87;0.87;;;;;;;;;;5071796;28;20482;-68
2022/11/01 05:36:50;;;;;;;2.97;1.40;;;;;;;;;;5072718;28;20744;-69
2022/11/01 05:39:16;;;;;;;3.20;1.30;;;;;;;;;;5069948;28;20931;-69
2022/11/01 05:41:41;;;;;;;1.50;1.03;;;;;;;;;;5067362;28;20432;-68
2022/11/01 05:44:07;;;;;;;1.07;1.07;;;;;;;;;;5070798;28;20844;-70
2022/11/01 05:46:33;;;;;;;1.70;0.90;;;;;;;;;;5067158;28;20433;-69
2022/11/01 05:48:59;;;;;;;1.03;1.03;;;;;;;;;;5071476;28;20476;-70
2022/11/01 05:51:25;;;;;;;1.30;1.03;;;;;;;;;;5069101;28;20782;-70
2022/11/01 05:53:51;;;;;;;0.97;0.97;;;;;;;;;;5069639;28;20437;-70
2022/11/01 05:56:18;;;;;;;0.87;0.87;;;;;;;;;;5072266;28;20902;-69
2022/11/01 05:58:44;;;;;;;1.80;1.10;;;;;;;;;;5071832;28;20970;-69
2022/11/01 06:01:10;;;;;;;1.13;1.13;;;;;;;;;;5071600;28;20526;-69
2022/11/01 06:03:36;;;;;;;1.80;1.27;;;;;;;;;;5069940;28;20985;-68
2022/11/01 06:06:02;;;;;;;2.03;1.20;;;;;;;;;;5070054;28;20425;-69
2022/11/01 06:08:29;;;;;;;1.90;1.00;;;;;;;;;;5068206;28;20473;-68
2022/11/01 06:11:02;;;;;;;1.63;0.90;;;;;;;;;;5070999;28;20425;-69
2022/11/01 06:13:29;;;;;;;1.10;1.10;;;;;;;;;;5071588;28;20425;-68
2022/11/01 06:16:02;;;;;;;1.47;0.77;;;;;;;;;;5071813;28;20421;-69
2022/11/01 06:18:28;;;;;;;4.30;0.83;;;;;;;;;;5072456;28;20433;-68
2022/11/01 06:20:54;;;;;;;0.77;0.77;;;;;;;;;;5069681;28;20788;-69
2022/11/01 06:23:20;;;;;;;1.20;1.00;;;;;;;;;;5071812;28;20441;-68
2022/11/01 06:25:46;;;;;;;3.47;0.60;;;;;;;;;;5069018;28;20986;-68
2022/11/01 06:28:12;;;;;;;0.77;0.70;;;;;;;;;;5069738;28;20494;-69
2022/11/01 06:30:38;;;;;;;1.10;1.10;;;;;;;;;;5069307;28;20445;-68
2022/11/01 06:33:05;;;;;;;2.07;1.10;;;;;;;;;;5070385;28;20939;-68
2022/11/01 06:35:31;;;;;;;0.83;0.83;;;;;;;;;;5068825;28;20463;-69
2022/11/01 06:38:01;;;;;;;5.63;0.80;;;;;;;;;;5069373;28;20433;-68
2022/11/01 06:40:27;;;;;;;2.00;0.90;;;;;;;;;;5052917;28;20445;-68
2022/11/01 06:42:58;;;;;;;1.20;0.90;;;;;;;;;;5070126;28;20433;-68
2022/11/01 06:45:24;;;;;;;2.13;0.53;;;;;;;;;;5066776;28;20434;-67
2022/11/01 06:47:49;;;;;;;1.00;1.00;;;;;;;;;;5066943;28;20438;-68
2022/11/01 06:50:16;;;;;;;2.57;0.80;;;;;;;;;;5070139;28;20859;-68
2022/11/01 06:52:41;;;;;;;3.47;0.73;;;;;;;;;;5051558;28;21204;-68
2022/11/01 06:55:07;;;;;;;0.80;0.80;;;;;;;;;;5070614;28;20566;-68
2022/11/01 06:57:33;;;;;;;0.73;0.73;;;;;;;;;;5071183;28;20974;-67
2022/11/01 06:59:59;;;;;;;8.53;1.07;;;;;;;;;;5068924;28;20434;-68
2022/11/01 07:02:25;;;;;;;0.80;0.80;;;;;;;;;;5048888;28;20433;-69
2022/11/01 07:04:51;;;;;;;8.23;0.60;;;;;;;;;;5067249;28;20481;-68
2022/11/01 07:07:17;;;;;;;0.73;0.73;;;;;;;;;;5067473;28;20425;-68
2022/11/01 07:09:43;;;;;;;0.70;0.70;;;;;;;;;;5069799;28;20889;-67
2022/11/01 07:12:09;;;;;;;0.87;0.80;;;;;;;;;;5069979;28;20421;-68
2022/11/01 07:14:35;;;;;;;0.87;0.77;;;;;;;;;;5068063;28;20445;-68
2022/11/01 07:17:01;;;;;;;2.90;1.20;;;;;;;;;;5068400;28;20429;-69
2022/11/01 07:19:27;;;;;;;1.77;0.67;;;;;;;;;;5068857;28;20991;-69
2022/11/01 07:21:53;;;;;;;1.57;0.63;;;;;;;;;;5070204;28;20418;-68
2022/11/01 07:24:19;;;;;;;1.70;0.77;;;;;;;;;;5070207;28;20420;-69
2022/11/01 07:26:45;;;;;;;0.73;0.73;;;;;;;;;;5069193;28;20425;-69
2022/11/01 07:29:11;;;;;;;0.67;0.67;;;;;;;;;;5051609;28;20485;-69
2022/11/01 07:31:37;;;;;;;2.57;0.80;;;;;;;;;;5052494;28;20426;-70
2022/11/01 07:34:04;;;;;;;2.73;0.80;;;;;;;;;;5070410;28;20823;-70
2022/11/01 07:36:30;;;;;;;0.93;0.90;;;;;;;;;;5064772;28;20516;-69
2022/11/01 07:38:56;;;;;;;1.00;1.00;;;;;;;;;;5069568;28;20516;-69
2022/11/01 07:41:22;;;;;;;2.30;2.20;;;;;;;;;;5049665;28;20450;-69
2022/11/01 07:43:48;;;;;;;1.00;1.00;;;;;;;;;;5069803;28;20440;-69
2022/11/01 07:46:14;;;;;;;1.53;1.43;;;;;;;;;;5068919;28;20446;-68
2022/11/01 07:48:40;;;;;;;1.00;1.00;;;;;;;;;;5070435;28;20489;-70
2022/11/01 07:51:08;;;;;;;3.33;0.80;;;;;;;;;;5069446;28;20426;-69
2022/11/01 07:53:34;;;;;;;2.73;0.77;;;;;;;;;;5069766;28;20524;-69
2022/11/01 07:56:00;;;;;;;0.70;0.70;;;;;;;;;;5061588;28;20533;-68
2022/11/01 07:58:26;;;;;;;0.67;0.67;;;;;;;;;;5064762;28;20457;-68
2022/11/01 08:00:52;;;;;;;0.53;0.53;;;;;;;;;;5065482;28;20996;-68
2022/11/01 08:03:18;;;;;;;0.50;0.50;;;;;;;;;;5066874;28;21734;-68
2022/11/01 08:05:45;;;;;;;5.30;0.60;;;;;;;;;;5068731;28;20437;-69
2022/11/01 08:08:11;;;;;;;0.63;0.63;;;;;;;;;;5070084;28;20501;-70
2022/11/01 08:10:38;;;;;;;3.13;0.93;;;;;;;;;;5069063;28;20482;-70
2022/11/01 08:13:05;;;;;;;0.70;0.70;;;;;;;;;;5068945;28;20501;-69
2022/11/01 08:15:31;;;;;;;0.40;0.40;;;;;;;;;;5069712;28;20903;-70
2022/11/01 08:17:58;;;;;;;3.03;0.77;;;;;;;;;;5068651;28;20435;-69
2022/11/01 08:20:25;;;;;;;1.30;0.70;;;;;;;;;;5068792;28;20807;-69
2022/11/01 08:22:51;;;;;;;0.93;0.60;;;;;;;;;;5068702;28;20460;-70
2022/11/01 08:25:17;;;;;;;0.70;0.70;;;;;;;;;;5070214;28;20494;-69
2022/11/01 08:27:44;;;;;;;1.47;1.37;;;;;;;;;;5069135;28;20430;-70
2022/11/01 08:30:10;;;;;;;6.53;1.00;;;;;;;;;;5068235;28;20438;-68
2022/11/01 08:32:36;;;;;;;4.30;0.80;;;;;;;;;;5069457;28;20417;-70
2022/11/01 08:35:02;;;;;;;0.50;0.50;;;;;;;;;;5069983;28;20414;-69
2022/11/01 08:37:28;;;;;;;1.13;0.50;;;;;;;;;;5068902;28;20436;-70
2022/11/01 08:39:54;;;;;;;0.57;0.57;;;;;;;;;;5050727;28;20446;-69
2022/11/01 08:42:20;;;;;;;0.47;0.47;;;;;;;;;;5066615;28;20448;-70
2022/11/01 08:44:46;;;;;;;0.57;0.57;;;;;;;;;;5069227;28;20414;-69
2022/11/01 08:47:12;;;;;;;1.17;0.50;;;;;;;;;;5068352;28;20433;-72
2022/11/01 08:49:38;;;;;;;0.43;0.43;;;;;;;;;;5068534;28;20988;-71
2022/11/01 08:52:05;;;;;;;0.63;0.50;;;;;;;;;;5067212;28;20496;-71
2022/11/01 08:54:31;;;;;;;0.50;0.50;;;;;;;;;;5049825;28;21614;-71
2022/11/01 08:56:57;;;;;;;0.60;0.60;;;;;;;;;;5069605;28;20429;-70
2022/11/01 08:59:23;;;;;;;1.13;0.50;;;;;;;;;;5068896;28;20854;-70
2022/11/01 09:01:49;;;;;;;1.00;0.53;;;;;;;;;;5068754;28;20765;-69
2022/11/01 09:04:16;;;;;;;1.23;0.70;;;;;;;;;;5050463;28;20482;-69
2022/11/01 09:06:42;;;;;;;1.40;0.50;;;;;;;;;;5069162;28;20759;-69
2022/11/01 09:09:09;;;;;;;0.40;0.40;;;;;;;;;;5064052;28;21008;-69
2022/11/01 09:11:35;;;;;;;0.63;0.63;;;;;;;;;;5068026;28;20793;-71
2022/11/01 09:14:01;;;;;;;0.40;0.40;;;;;;;;;;5047091;28;20439;-71
2022/11/01 09:16:27;;;;;;;0.40;0.40;;;;;;;;;;5066045;28;20505;-70
2022/11/01 09:18:53;;;;;;;0.50;0.50;;;;;;;;;;5066535;28;20441;-69
2022/11/01 09:21:19;;;;;;;1.30;0.70;;;;;;;;;;5065062;28;20439;-69
2022/11/01 09:23:45;;;;;;;0.67;0.67;;;;;;;;;;5067647;28;20440;-69
2022/11/01 09:26:12;;;;;;;2.23;0.50;;;;;;;;;;5069390;28;20508;-69
2022/11/01 09:28:38;;;;;;;0.70;0.70;;;;;;;;;;5069421;28;20576;-70
2022/11/01 09:31:09;;;;;;;0.60;0.60;;;;;;;;;;5069257;28;20441;-71
2022/11/01 09:33:35;;;;;;;0.77;0.77;;;;;;;;;;5065522;28;20476;-70
2022/11/01 09:36:01;;;;;;;0.70;0.70;;;;;;;;;;5068119;28;20518;-69
2022/11/01 09:38:27;;;;;;;1.53;0.93;;;;;;;;;;5068612;28;20512;-69
2022/11/01 09:41:05;;;;;;;1.37;0.60;;;;;;;;;;5066881;28;20876;-69
2022/11/01 09:43:32;;;;;;;1.13;0.70;;;;;;;;;;5068807;28;20512;-69
2022/11/01 09:45:59;;;;;;;1.17;0.63;;;;;;;;;;5066697;28;20504;-70
2022/11/01 09:48:26;;;;;;;5.00;0.67;;;;;;;;;;5064663;28;20509;-69
2022/11/01 09:50:53;;;;;;;1.07;1.07;;;;;;;;;;5064991;28;20483;-68
2022/11/01 09:53:25;;;;;;;2.43;0.50;;;;;;;;;;5047245;28;20457;-68
2022/11/01 09:55:53;;;;;;;2.73;0.87;;;;;;;;;;5065750;28;20453;-69
2022/11/01 09:58:29;;;;;;;1.90;0.80;;;;;;;;;;5065545;28;20455;-69
2022/11/01 10:01:01;;;;;;;12.10;6.63;;;;;;;;;;5060666;28;20433;-68
2022/11/01 10:03:37;;;;;;;7.17;5.27;;;;;;;;;;5071055;28;21697;-69
2022/11/01 10:06:19;;;;;;;25.87;15.30;;;;;;;;;;5070473;28;20428;-69
2022/11/01 10:08:53;;;;;;;1.97;1.87;;;;;;;;;;5069496;28;20484;-69
2022/11/01 10:11:21;;;;;;;27.30;15.90;;;;;;;;;;5065471;28;20971;-68
2022/11/01 10:13:47;;;;;;;1.70;1.60;;;;;;;;;;5070699;28;20926;-67
2022/11/01 10:16:29;;;;;;;1.13;1.13;;;;;;;;;;5069485;28;20443;-68
2022/11/01 10:19:10;;;;;;;5.80;0.90;;;;;;;;;;5069071;28;20528;-70
2022/11/01 10:21:49;;;;;;;0.80;0.60;;;;;;;;;;5052936;28;20528;-68
2022/11/01 10:24:39;;;;;;;1.00;1.00;;;;;;;;;;5067792;28;20839;-70
2022/11/01 10:27:10;;;;;;;5.33;1.80;;;;;;;;;;5060473;28;20579;-68
2022/11/01 10:29:42;;;;;;;1.33;0.70;;;;;;;;;;5071974;28;20473;-71
2022/11/01 10:32:19;;;;;;;1.07;0.80;;;;;;;;;;5050271;28;20499;-70
2022/11/01 10:34:45;;;;;;;1.67;0.80;;;;;;;;;;5072148;28;20436;-68
2022/11/01 10:37:15;;;;;;;2.83;1.10;;;;;;;;;;5071830;28;20520;-68
2022/11/01 10:39:46;;;;;;;0.80;0.80;;;;;;;;;;5071891;28;20413;-69
2022/11/01 10:42:15;;;;;;;3.07;1.17;;;;;;;;;;5069223;28;20437;-68
2022/11/01 10:44:53;;;;;;;0.80;0.80;;;;;;;;;;5053170;28;20422;-69
2022/11/01 10:47:19;;;;;;;0.70;0.70;;;;;;;;;;5070792;28;20418;-69
2022/11/01 10:49:47;;;;;;;1.13;0.90;;;;;;;;;;5052277;28;20477;-69
2022/11/01 10:52:15;;;;;;;0.80;0.80;;;;;;;;;;5068243;28;20448;-70
2022/11/01 10:54:43;;;;;;;2.57;0.80;;;;;;;;;;5071255;28;20598;-70
2022/11/01 10:57:12;;;;;;;0.80;0.80;;;;;;;;;;5071524;28;20876;-69
2022/11/01 10:59:43;;;;;;;0.90;0.90;;;;;;;;;;5071737;28;20426;-70
2022/11/01 11:02:21;;;;;;;1.10;1.10;;;;;;;;;;5050675;28;20418;-68
2022/11/01 11:04:48;;;;;;;4.20;1.23;;;;;;;;;;5069120;28;20877;-67
2022/11/01 11:07:15;;;;;;;1.70;0.80;;;;;;;;;;5052336;28;20442;-70
2022/11/01 11:09:41;;;;;;;2.33;0.70;;;;;;;;;;5071132;28;20507;-69
2022/11/01 11:12:11;;;;;;;0.90;0.90;;;;;;;;;;5070197;28;20796;-68
2022/11/01 11:14:38;;;;;;;0.97;0.97;;;;;;;;;;5052386;28;20968;-70
2022/11/01 11:17:12;;;;;;;2.50;0.80;;;;;;;;;;5070945;28;20413;-70
2022/11/01 11:19:38;;;;;;;1.00;1.00;;;;;;;;;;5071508;28;20479;-69
2022/11/01 11:22:08;;;;;;;14.00;1.10;;;;;;;;;;5070322;28;20456;-69
2022/11/01 11:24:35;;;;;;;6.80;1.37;;;;;;;;;;5066198;28;20433;-69
2022/11/01 11:27:02;;;;;;;2.33;0.90;;;;;;;;;;5069663;28;20480;-70
2022/11/01 11:29:28;;;;;;;1.10;0.80;;;;;;;;;;5069244;28;20492;-68
2022/11/01 11:31:55;;;;;;;1.20;1.20;;;;;;;;;;5068006;28;20960;-69
2022/11/01 11:34:23;;;;;;;0.80;0.80;;;;;;;;;;5069757;28;20440;-71
2022/11/01 11:36:51;;;;;;;4.43;1.33;;;;;;;;;;5052628;28;20425;-70
2022/11/01 11:39:23;;;;;;;3.70;1.00;;;;;;;;;;5051016;28;20442;-70
2022/11/01 11:41:49;;;;;;;2.43;1.20;;;;;;;;;;5069433;28;20794;-69
2022/11/01 11:44:37;;;;;;;1.00;1.00;;;;;;;;;;5070124;28;20441;-69
2022/11/01 11:47:03;;;;;;;1.20;1.10;;;;;;;;;;5060373;28;20464;-69
2022/11/01 11:49:29;;;;;;;1.23;1.13;;;;;;;;;;5051938;28;20996;-68
2022/11/01 11:51:55;;;;;;;2.37;0.90;;;;;;;;;;5066946;28;20414;-68
2022/11/01 11:54:24;;;;;;;3.23;1.30;;;;;;;;;;5070040;28;20429;-68
2022/11/01 11:56:51;;;;;;;1.53;1.10;;;;;;;;;;5067999;28;20516;-70
2022/11/01 11:59:24;;;;;;;1.33;1.17;;;;;;;;;;5070249;28;20806;-69
2022/11/01 12:01:54;;;;;;;1.47;1.17;;;;;;;;;;5068093;28;20439;-71
2022/11/01 12:04:22;;;;;;;1.23;1.13;;;;;;;;;;5069402;28;20509;-69
2022/11/01 12:06:48;;;;;;;0.87;0.87;;;;;;;;;;5067623;28;20796;-69
2022/11/01 12:09:33;;;;;;;1.23;1.23;;;;;;;;;;5064803;28;20542;-70
2022/11/01 12:12:05;;;;;;;3.67;1.67;;;;;;;;;;5061388;28;20429;-71
2022/11/01 12:14:35;;;;;;;1.30;1.20;;;;;;;;;;5068786;28;20527;-69
2022/11/01 12:17:01;;;;;;;3.17;1.60;;;;;;;;;;5067211;28;20452;-69
2022/11/01 12:19:31;;;;;;;1.17;0.93;;;;;;;;;;5062922;28;20433;-70
2022/11/01 12:22:00;;;;;;;1.23;1.00;;;;;;;;;;5064546;28;20818;-69
2022/11/01 12:24:29;;;;;;;1.47;1.37;;;;;;;;;;5065695;28;20441;-69
2022/11/01 12:26:56;;;;;;;7.70;1.30;;;;;;;;;;5061100;28;20433;-69
2022/11/01 12:29:25;;;;;;;0.83;0.83;;;;;;;;;;5065232;28;20496;-70
2022/11/01 12:31:53;;;;;;;7.60;1.57;;;;;;;;;;5062772;28;20425;-69
2022/11/01 12:34:21;;;;;;;7.10;0.90;;;;;;;;;;5063010;28;20520;-69
2022/11/01 12:36:56;;;;;;;1.00;1.00;;;;;;;;;;5061699;28;20461;-68
2022/11/01 12:39:39;;;;;;;1.20;1.10;;;;;;;;;;5064698;28;20432;-69
2022/11/01 12:42:05;;;;;;;1.13;1.13;;;;;;;;;;5063472;28;20429;-69
2022/11/01 12:44:36;;;;;;;1.20;1.20;;;;;;;;;;5064591;28;20563;-79
2022/11/01 12:47:08;;;;;;;3.43;0.90;;;;;;;;;;5064965;28;20429;-70
2022/11/01 12:49:45;;;;;;;0.80;0.80;;;;;;;;;;5059172;28;20486;-71
2022/11/01 12:52:23;;;;;;;2.20;0.97;;;;;;;;;;5045615;28;20784;-70
2022/11/01 12:54:55;;;;;;;2.87;0.60;;;;;;;;;;5066415;28;20433;-70
2022/11/01 12:57:22;;;;;;;12.50;2.07;;;;;;;;;;5066905;28;20425;-71
2022/11/01 12:59:48;;;;;;;6.00;1.00;;;;;;;;;;5069105;28;20799;-70
2022/11/01 13:02:33;;;;;;;2.10;0.70;;;;;;;;;;5063775;28;20442;-69
2022/11/01 13:05:17;;;;;;;2.00;1.10;;;;;;;;;;5063599;28;20477;-71
2022/11/01 13:07:46;;;;;;;4.13;1.30;;;;;;;;;;5063836;28;20508;-70
2022/11/01 13:10:32;;;;;;;1.60;0.80;;;;;;;;;;5059402;28;21614;-68
2022/11/01 13:13:00;;;;;;;4.07;0.97;;;;;;;;;;5063839;28;20905;-69
2022/11/01 13:15:42;;;;;;;2.20;1.47;;;;;;;;;;5063923;28;20433;-69
2022/11/01 13:18:28;;;;;;;1.50;1.50;;;;;;;;;;5064254;28;20501;-69
2022/11/01 13:21:10;;;;;;;3.90;1.47;;;;;;;;;;5017792;28;20445;-69
2022/11/01 13:23:38;;;;;;;2.73;0.90;;;;;;;;;;5068236;28;20484;-68
2022/11/01 13:26:23;;;;;;;1.20;1.10;;;;;;;;;;5067126;28;20449;-70
2022/11/01 13:29:08;;;;;;;3.07;1.00;;;;;;;;;;5067366;28;20542;-70
2022/11/01 13:31:40;;;;;;;1.13;0.97;;;;;;;;;;5066819;28;20437;-69
2022/11/01 13:34:09;;;;;;;2.83;1.17;;;;;;;;;;5068318;28;20443;-69
2022/11/01 13:36:40;;;;;;;1.57;1.10;;;;;;;;;;5067173;28;20429;-70
2022/11/01 13:39:24;;;;;;;0.93;0.90;;;;;;;;;;5072370;28;20465;-69
2022/11/01 13:42:10;;;;;;;1.63;0.70;;;;;;;;;;5070482;28;20437;-69
2022/11/01 13:44:40;;;;;;;2.13;2.00;;;;;;;;;;5053126;28;20437;-68
2022/11/01 13:47:28;;;;;;;1.10;1.00;;;;;;;;;;5071651;28;20429;-69
2022/11/01 13:50:13;;;;;;;1.23;1.00;;;;;;;;;;5068984;28;20469;-69
2022/11/01 13:52:47;;;;;;;1.27;0.80;;;;;;;;;;5069291;28;20421;-69
2022/11/01 13:55:24;;;;;;;6.93;1.03;;;;;;;;;;5067317;28;20437;-69
2022/11/01 13:57:52;;;;;;;1.30;0.90;;;;;;;;;;5070557;28;20425;-71
2022/11/01 14:00:57;;;;;;;1.60;0.80;;;;;;;;;;5071434;28;20508;-70
2022/11/01 14:03:31;;;;;;;0.80;0.80;;;;;;;;;;5009796;28;20505;-69
2022/11/01 14:06:10;;;;;;;3.60;1.27;;;;;;;;;;5006698;28;20944;-69
2022/11/01 14:08:36;;;;;;;3.90;0.90;;;;;;;;;;5046247;28;20571;-69
2022/11/01 14:11:02;;;;;;;1.63;0.93;;;;;;;;;;5052202;28;20521;-71
2022/11/01 14:13:32;;;;;;;4.07;1.27;;;;;;;;;;5070716;28;21037;-69
2022/11/01 14:15:58;;;;;;;3.80;1.17;;;;;;;;;;5070532;28;20433;-69
2022/11/01 14:18:25;;;;;;;1.83;1.10;;;;;;;;;;5071886;28;20417;-70
2022/11/01 14:20:55;;;;;;;1.20;1.10;;;;;;;;;;5070072;28;20444;-71
2022/11/01 14:23:27;;;;;;;2.00;1.00;;;;;;;;;;5070712;28;20441;-69
2022/11/01 14:26:11;;;;;;;2.90;1.00;;;;;;;;;;5070983;28;20425;-70
2022/11/01 14:28:41;;;;;;;2.63;1.10;;;;;;;;;;5051949;28;20484;-70
2022/11/01 14:31:08;;;;;;;3.63;1.17;;;;;;;;;;5071285;28;20965;-70
2022/11/01 14:33:35;;;;;;;1.80;1.10;;;;;;;;;;5071317;28;20444;-68
2022/11/01 14:36:02;;;;;;;1.23;0.63;;;;;;;;;;5071045;28;20429;-69
2022/11/01 14:38:41;;;;;;;2.33;1.00;;;;;;;;;;5071243;28;20433;-68
2022/11/01 14:41:08;;;;;;;2.80;1.40;;;;;;;;;;5071007;28;20491;-69
2022/11/01 14:43:33;;;;;;;1.23;0.97;;;;;;;;;;5071249;28;20491;-68
2022/11/01 14:46:04;;;;;;;4.40;1.10;;;;;;;;;;5071555;28;20429;-69
2022/11/01 14:48:35;;;;;;;6.00;1.90;;;;;;;;;;5069050;28;20473;-68
2022/11/01 14:51:07;;;;;;;1.10;1.00;;;;;;;;;;5070277;28;20437;-68
2022/11/01 14:53:36;;;;;;;1.13;0.93;;;;;;;;;;5070879;28;20508;-68
2022/11/01 14:56:11;;;;;;;2.30;0.87;;;;;;;;;;5071006;28;20432;-68
2022/11/01 14:58:38;;;;;;;0.83;0.60;;;;;;;;;;5070048;28;20440;-68
2022/11/01 15:01:06;;;;;;;0.70;0.70;;;;;;;;;;5069850;28;20433;-68